sensor_id;sensor_type;location;lat;lon;timestamp;temperature;humidity
41668;DHT22;27356;50.920;5.350;2022-12-18T00:01:37;-5.90;99.90
41668;DHT22;27356;50.920;5.350;2022-12-18T00:04:06;-5.90;99.90
41668;DHT22;27356;50.920;5.350;2022-12-18T00:06:33;-5.80;99.90
41668;DHT22;27356;50.920;5.350;2022-12-18T00:09:00;-5.90;99.90
41668;DHT22;27356;50.920;5.350;2022-12-18T00:11:28;-5.80;99.90
41668;DHT22;27356;50.920;5.350;2022-12-18T00:13:57;-5.90;99.90
41668;DHT22;27356;50.920;5.350;2022-12-18T00:16:25;-5.70;99.90
41668;DHT22;27356;50.920;5.350;2022-12-18T00:18:52;-5.40;99.90
41668;DHT22;27356;50.920;5.350;2022-12-18T00:21:19;-5.50;99.90
41668;DHT22;27356;50.920;5.350;2022-12-18T00:23:46;-5.30;99.90
41668;DHT22;27356;50.920;5.350;2022-12-18T00:26:18;-5.40;99.90
41668;DHT22;27356;50.920;5.350;2022-12-18T00:28:45;-5.30;99.90
41668;DHT22;27356;50.920;5.350;2022-12-18T00:31:13;-5.30;99.90
41668;DHT22;27356;50.920;5.350;2022-12-18T00:33:39;-5.40;99.90
41668;DHT22;27356;50.920;5.350;2022-12-18T00:36:09;-5.40;99.90
41668;DHT22;27356;50.920;5.350;2022-12-18T00:38:36;-5.50;99.90
41668;DHT22;27356;50.920;5.350;2022-12-18T00:41:02;-5.70;99.90
41668;DHT22;27356;50.920;5.350;2022-12-18T00:43:28;-5.80;99.90
41668;DHT22;27356;50.920;5.350;2022-12-18T00:45:54;-6.00;99.90
41668;DHT22;27356;50.920;5.350;2022-12-18T00:48:20;-6.10;99.90
41668;DHT22;27356;50.920;5.350;2022-12-18T00:50:47;-6.10;99.90
41668;DHT22;27356;50.920;5.350;2022-12-18T00:53:13;-6.10;99.90
41668;DHT22;27356;50.920;5.350;2022-12-18T00:55:42;-6.10;99.90
41668;DHT22;27356;50.920;5.350;2022-12-18T00:58:09;-6.00;99.90
41668;DHT22;27356;50.920;5.350;2022-12-18T01:00:35;-6.00;99.90
41668;DHT22;27356;50.920;5.350;2022-12-18T01:03:01;-6.00;99.90
41668;DHT22;27356;50.920;5.350;2022-12-18T01:05:27;-6.10;99.90
41668;DHT22;27356;50.920;5.350;2022-12-18T01:07:53;-6.20;99.90
41668;DHT22;27356;50.920;5.350;2022-12-18T01:10:19;-6.20;99.90
41668;DHT22;27356;50.920;5.350;2022-12-18T01:12:44;-6.20;99.90
41668;DHT22;27356;50.920;5.350;2022-12-18T01:15:12;-6.00;99.90
41668;DHT22;27356;50.920;5.350;2022-12-18T01:17:38;-6.00;99.90
41668;DHT22;27356;50.920;5.350;2022-12-18T01:20:04;-5.90;99.90
41668;DHT22;27356;50.920;5.350;2022-12-18T01:22:30;-5.90;99.90
41668;DHT22;27356;50.920;5.350;2022-12-18T01:24:56;-6.10;99.90
41668;DHT22;27356;50.920;5.350;2022-12-18T01:27:21;-6.20;99.90
41668;DHT22;27356;50.920;5.350;2022-12-18T01:29:47;-6.10;99.90
41668;DHT22;27356;50.920;5.350;2022-12-18T01:32:13;-6.10;99.90
41668;DHT22;27356;50.920;5.350;2022-12-18T01:34:38;-6.10;99.90
41668;DHT22;27356;50.920;5.350;2022-12-18T01:37:04;-6.00;99.90
41668;DHT22;27356;50.920;5.350;2022-12-18T01:39:30;-6.10;99.90
41668;DHT22;27356;50.920;5.350;2022-12-18T01:41:58;-6.20;99.90
41668;DHT22;27356;50.920;5.350;2022-12-18T01:44:59;-6.10;99.90
41668;DHT22;27356;50.920;5.350;2022-12-18T01:47:46;-6.20;99.90
41668;DHT22;27356;50.920;5.350;2022-12-18T01:50:39;-6.10;99.90
41668;DHT22;27356;50.920;5.350;2022-12-18T01:53:18;-6.30;99.90
41668;DHT22;27356;50.920;5.350;2022-12-18T01:55:52;-6.30;99.90
41668;DHT22;27356;50.920;5.350;2022-12-18T01:58:21;-6.40;99.90
41668;DHT22;27356;50.920;5.350;2022-12-18T02:00:49;-6.30;99.90
41668;DHT22;27356;50.920;5.350;2022-12-18T02:03:15;-6.10;99.90
41668;DHT22;27356;50.920;5.350;2022-12-18T02:05:47;-6.20;99.90
41668;DHT22;27356;50.920;5.350;2022-12-18T02:13:46;-6.20;99.90
41668;DHT22;27356;50.920;5.350;2022-12-18T02:19:14;-6.30;99.90
41668;DHT22;27356;50.920;5.350;2022-12-18T02:21:46;-6.30;99.90
41668;DHT22;27356;50.920;5.350;2022-12-18T02:27:04;-6.40;99.90
41668;DHT22;27356;50.920;5.350;2022-12-18T02:29:40;-6.40;99.90
41668;DHT22;27356;50.920;5.350;2022-12-18T02:32:14;-6.40;99.90
41668;DHT22;27356;50.920;5.350;2022-12-18T02:34:41;-6.20;99.90
41668;DHT22;27356;50.920;5.350;2022-12-18T02:37:12;-6.50;99.90
41668;DHT22;27356;50.920;5.350;2022-12-18T02:39:41;-6.40;99.90
41668;DHT22;27356;50.920;5.350;2022-12-18T02:42:07;-6.40;99.90
41668;DHT22;27356;50.920;5.350;2022-12-18T02:44:34;-6.40;99.90
41668;DHT22;27356;50.920;5.350;2022-12-18T02:47:01;-6.50;99.90
41668;DHT22;27356;50.920;5.350;2022-12-18T03:01:14;-6.60;99.90
41668;DHT22;27356;50.920;5.350;2022-12-18T03:03:52;-6.40;99.90
41668;DHT22;27356;50.920;5.350;2022-12-18T03:06:36;-6.50;99.90
41668;DHT22;27356;50.920;5.350;2022-12-18T03:09:09;-6.60;99.90
41668;DHT22;27356;50.920;5.350;2022-12-18T03:11:39;-6.60;99.90
41668;DHT22;27356;50.920;5.350;2022-12-18T03:14:25;-6.50;99.90
41668;DHT22;27356;50.920;5.350;2022-12-18T03:17:00;-6.50;99.90
41668;DHT22;27356;50.920;5.350;2022-12-18T03:19:28;-6.60;99.90
41668;DHT22;27356;50.920;5.350;2022-12-18T03:21:56;-6.60;99.90
41668;DHT22;27356;50.920;5.350;2022-12-18T03:24:24;-6.60;99.90
41668;DHT22;27356;50.920;5.350;2022-12-18T03:26:54;-6.60;99.90
41668;DHT22;27356;50.920;5.350;2022-12-18T03:32:27;-6.80;99.90
41668;DHT22;27356;50.920;5.350;2022-12-18T03:34:56;-6.90;99.90
41668;DHT22;27356;50.920;5.350;2022-12-18T03:37:22;-7.00;99.90
41668;DHT22;27356;50.920;5.350;2022-12-18T03:39:48;-7.00;99.90
41668;DHT22;27356;50.920;5.350;2022-12-18T03:42:28;-7.10;99.90
41668;DHT22;27356;50.920;5.350;2022-12-18T03:50:36;-7.30;99.90
41668;DHT22;27356;50.920;5.350;2022-12-18T03:53:22;-7.20;99.90
41668;DHT22;27356;50.920;5.350;2022-12-18T03:55:50;-7.40;99.90
41668;DHT22;27356;50.920;5.350;2022-12-18T03:58:20;-7.40;99.90
41668;DHT22;27356;50.920;5.350;2022-12-18T04:00:48;-7.30;99.90
41668;DHT22;27356;50.920;5.350;2022-12-18T04:03:16;-7.30;99.90
41668;DHT22;27356;50.920;5.350;2022-12-18T04:05:43;-7.40;99.90
41668;DHT22;27356;50.920;5.350;2022-12-18T04:08:10;-7.40;99.90
41668;DHT22;27356;50.920;5.350;2022-12-18T04:10:36;-7.50;99.90
41668;DHT22;27356;50.920;5.350;2022-12-18T04:13:02;-7.50;99.90
41668;DHT22;27356;50.920;5.350;2022-12-18T04:15:27;-7.60;99.90
41668;DHT22;27356;50.920;5.350;2022-12-18T04:17:53;-7.60;99.90
41668;DHT22;27356;50.920;5.350;2022-12-18T04:20:19;-7.70;99.90
41668;DHT22;27356;50.920;5.350;2022-12-18T04:22:45;-7.70;99.90
41668;DHT22;27356;50.920;5.350;2022-12-18T04:25:11;-7.80;99.90
41668;DHT22;27356;50.920;5.350;2022-12-18T04:27:36;-7.70;99.90
41668;DHT22;27356;50.920;5.350;2022-12-18T04:30:02;-7.90;99.90
41668;DHT22;27356;50.920;5.350;2022-12-18T04:32:28;-7.70;99.90
41668;DHT22;27356;50.920;5.350;2022-12-18T04:34:54;-7.80;99.90
41668;DHT22;27356;50.920;5.350;2022-12-18T04:37:20;-7.60;99.90
41668;DHT22;27356;50.920;5.350;2022-12-18T04:39:45;-7.50;99.90
41668;DHT22;27356;50.920;5.350;2022-12-18T04:42:11;-7.60;99.90
41668;DHT22;27356;50.920;5.350;2022-12-18T04:44:37;-7.60;99.90
41668;DHT22;27356;50.920;5.350;2022-12-18T04:47:03;-7.70;99.90
41668;DHT22;27356;50.920;5.350;2022-12-18T04:49:28;-7.60;99.90
41668;DHT22;27356;50.920;5.350;2022-12-18T04:51:54;-7.70;99.90
41668;DHT22;27356;50.920;5.350;2022-12-18T04:54:20;-7.70;99.90
41668;DHT22;27356;50.920;5.350;2022-12-18T04:56:46;-7.80;99.90
41668;DHT22;27356;50.920;5.350;2022-12-18T04:59:11;-7.90;99.90
41668;DHT22;27356;50.920;5.350;2022-12-18T05:01:37;-7.80;99.90
41668;DHT22;27356;50.920;5.350;2022-12-18T05:04:03;-7.80;99.90
41668;DHT22;27356;50.920;5.350;2022-12-18T05:06:28;-7.80;99.90
41668;DHT22;27356;50.920;5.350;2022-12-18T05:08:54;-7.90;99.90
41668;DHT22;27356;50.920;5.350;2022-12-18T05:11:20;-7.80;99.90
41668;DHT22;27356;50.920;5.350;2022-12-18T05:13:46;-7.70;99.90
41668;DHT22;27356;50.920;5.350;2022-12-18T05:16:13;-7.50;99.90
41668;DHT22;27356;50.920;5.350;2022-12-18T05:18:39;-7.60;99.90
41668;DHT22;27356;50.920;5.350;2022-12-18T05:21:05;-7.60;99.90
41668;DHT22;27356;50.920;5.350;2022-12-18T05:23:31;-7.60;99.90
41668;DHT22;27356;50.920;5.350;2022-12-18T05:25:58;-7.60;99.90
41668;DHT22;27356;50.920;5.350;2022-12-18T05:28:26;-7.60;99.90
41668;DHT22;27356;50.920;5.350;2022-12-18T05:30:55;-7.60;99.90
41668;DHT22;27356;50.920;5.350;2022-12-18T05:33:22;-7.60;99.90
41668;DHT22;27356;50.920;5.350;2022-12-18T05:35:57;-7.60;99.90
41668;DHT22;27356;50.920;5.350;2022-12-18T05:38:24;-7.50;99.90
41668;DHT22;27356;50.920;5.350;2022-12-18T05:40:51;-7.50;99.90
41668;DHT22;27356;50.920;5.350;2022-12-18T05:43:18;-7.50;99.90
41668;DHT22;27356;50.920;5.350;2022-12-18T05:45:44;-7.60;99.90
41668;DHT22;27356;50.920;5.350;2022-12-18T05:48:10;-7.70;99.90
41668;DHT22;27356;50.920;5.350;2022-12-18T05:50:37;-7.70;99.90
41668;DHT22;27356;50.920;5.350;2022-12-18T05:53:04;-7.40;99.90
41668;DHT22;27356;50.920;5.350;2022-12-18T05:55:33;-7.30;99.90
41668;DHT22;27356;50.920;5.350;2022-12-18T05:57:58;-7.50;99.90
41668;DHT22;27356;50.920;5.350;2022-12-18T06:00:25;-7.40;99.90
41668;DHT22;27356;50.920;5.350;2022-12-18T06:02:51;-7.40;99.90
41668;DHT22;27356;50.920;5.350;2022-12-18T06:05:17;-7.50;99.90
41668;DHT22;27356;50.920;5.350;2022-12-18T06:07:42;-7.50;99.90
41668;DHT22;27356;50.920;5.350;2022-12-18T06:10:08;-7.50;99.90
41668;DHT22;27356;50.920;5.350;2022-12-18T06:12:34;-7.50;99.90
41668;DHT22;27356;50.920;5.350;2022-12-18T06:15:00;-7.50;99.90
41668;DHT22;27356;50.920;5.350;2022-12-18T06:17:33;-7.40;99.90
41668;DHT22;27356;50.920;5.350;2022-12-18T06:19:59;-7.50;99.90
41668;DHT22;27356;50.920;5.350;2022-12-18T06:22:25;-7.40;99.90
41668;DHT22;27356;50.920;5.350;2022-12-18T06:24:51;-7.40;99.90
41668;DHT22;27356;50.920;5.350;2022-12-18T06:27:17;-7.50;99.90
41668;DHT22;27356;50.920;5.350;2022-12-18T06:29:42;-7.50;99.90
41668;DHT22;27356;50.920;5.350;2022-12-18T06:32:08;-7.60;99.90
41668;DHT22;27356;50.920;5.350;2022-12-18T06:34:36;-7.40;99.90
41668;DHT22;27356;50.920;5.350;2022-12-18T06:37:02;-7.30;99.90
41668;DHT22;27356;50.920;5.350;2022-12-18T06:39:28;-7.30;99.90
41668;DHT22;27356;50.920;5.350;2022-12-18T06:41:53;-7.30;99.90
41668;DHT22;27356;50.920;5.350;2022-12-18T06:44:19;-7.20;99.90
41668;DHT22;27356;50.920;5.350;2022-12-18T06:46:45;-7.10;99.90
41668;DHT22;27356;50.920;5.350;2022-12-18T06:49:11;-7.00;99.90
41668;DHT22;27356;50.920;5.350;2022-12-18T06:51:37;-7.10;99.90
41668;DHT22;27356;50.920;5.350;2022-12-18T06:54:03;-7.10;99.90
41668;DHT22;27356;50.920;5.350;2022-12-18T06:56:29;-7.20;99.90
41668;DHT22;27356;50.920;5.350;2022-12-18T06:58:55;-7.10;99.90
41668;DHT22;27356;50.920;5.350;2022-12-18T07:01:21;-7.10;99.90
41668;DHT22;27356;50.920;5.350;2022-12-18T07:03:51;-7.00;99.90
41668;DHT22;27356;50.920;5.350;2022-12-18T07:06:21;-7.10;99.90
41668;DHT22;27356;50.920;5.350;2022-12-18T07:08:48;-7.20;99.90
41668;DHT22;27356;50.920;5.350;2022-12-18T07:11:14;-7.20;99.90
41668;DHT22;27356;50.920;5.350;2022-12-18T07:13:40;-7.10;99.90
41668;DHT22;27356;50.920;5.350;2022-12-18T07:16:14;-7.00;99.90
41668;DHT22;27356;50.920;5.350;2022-12-18T07:18:40;-7.10;99.90
41668;DHT22;27356;50.920;5.350;2022-12-18T07:21:09;-7.30;99.90
41668;DHT22;27356;50.920;5.350;2022-12-18T07:23:35;-7.20;99.90
41668;DHT22;27356;50.920;5.350;2022-12-18T07:26:12;-7.20;99.90
41668;DHT22;27356;50.920;5.350;2022-12-18T07:28:40;-7.30;99.90
41668;DHT22;27356;50.920;5.350;2022-12-18T07:31:07;-7.30;99.90
41668;DHT22;27356;50.920;5.350;2022-12-18T07:33:34;-7.40;99.90
41668;DHT22;27356;50.920;5.350;2022-12-18T07:36:01;-7.30;99.90
41668;DHT22;27356;50.920;5.350;2022-12-18T07:38:27;-7.30;99.90
41668;DHT22;27356;50.920;5.350;2022-12-18T07:40:52;-7.30;99.90
41668;DHT22;27356;50.920;5.350;2022-12-18T07:43:18;-7.20;99.90
41668;DHT22;27356;50.920;5.350;2022-12-18T07:45:43;-7.30;99.90
41668;DHT22;27356;50.920;5.350;2022-12-18T07:48:09;-7.40;99.90
41668;DHT22;27356;50.920;5.350;2022-12-18T07:50:35;-7.30;99.90
41668;DHT22;27356;50.920;5.350;2022-12-18T07:53:01;-7.20;99.90
41668;DHT22;27356;50.920;5.350;2022-12-18T07:55:29;-7.20;99.90
41668;DHT22;27356;50.920;5.350;2022-12-18T07:57:55;-6.90;99.90
41668;DHT22;27356;50.920;5.350;2022-12-18T08:00:21;-6.90;99.90
41668;DHT22;27356;50.920;5.350;2022-12-18T08:02:47;-6.80;99.90
41668;DHT22;27356;50.920;5.350;2022-12-18T08:05:13;-7.00;99.90
41668;DHT22;27356;50.920;5.350;2022-12-18T08:07:39;-6.90;99.90
41668;DHT22;27356;50.920;5.350;2022-12-18T08:10:06;-6.80;99.90
41668;DHT22;27356;50.920;5.350;2022-12-18T08:12:32;-7.00;99.90
41668;DHT22;27356;50.920;5.350;2022-12-18T08:14:59;-7.00;99.90
41668;DHT22;27356;50.920;5.350;2022-12-18T08:17:25;-6.80;99.90
41668;DHT22;27356;50.920;5.350;2022-12-18T08:19:51;-6.80;99.90
41668;DHT22;27356;50.920;5.350;2022-12-18T08:22:17;-6.60;99.90
41668;DHT22;27356;50.920;5.350;2022-12-18T08:24:43;-6.40;99.90
41668;DHT22;27356;50.920;5.350;2022-12-18T08:27:09;-6.00;99.90
41668;DHT22;27356;50.920;5.350;2022-12-18T08:29:34;-6.10;99.90
41668;DHT22;27356;50.920;5.350;2022-12-18T08:32:00;-6.40;99.90
41668;DHT22;27356;50.920;5.350;2022-12-18T08:34:26;-6.30;99.90
41668;DHT22;27356;50.920;5.350;2022-12-18T08:36:51;-6.20;99.90
41668;DHT22;27356;50.920;5.350;2022-12-18T08:39:17;-6.00;99.90
41668;DHT22;27356;50.920;5.350;2022-12-18T08:41:44;-6.20;99.90
41668;DHT22;27356;50.920;5.350;2022-12-18T08:44:29;-6.30;99.90
41668;DHT22;27356;50.920;5.350;2022-12-18T08:47:05;-6.30;99.90
41668;DHT22;27356;50.920;5.350;2022-12-18T08:49:31;-6.30;99.90
41668;DHT22;27356;50.920;5.350;2022-12-18T08:51:57;-6.30;99.90
41668;DHT22;27356;50.920;5.350;2022-12-18T08:54:23;-5.90;99.90
41668;DHT22;27356;50.920;5.350;2022-12-18T08:56:49;-6.00;99.90
41668;DHT22;27356;50.920;5.350;2022-12-18T08:59:16;-5.80;99.90
41668;DHT22;27356;50.920;5.350;2022-12-18T09:01:42;-5.80;99.90
41668;DHT22;27356;50.920;5.350;2022-12-18T09:04:09;-5.80;99.90
41668;DHT22;27356;50.920;5.350;2022-12-18T09:06:35;-5.70;99.90
41668;DHT22;27356;50.920;5.350;2022-12-18T09:09:01;-5.90;99.90
41668;DHT22;27356;50.920;5.350;2022-12-18T09:11:28;-5.60;99.90
41668;DHT22;27356;50.920;5.350;2022-12-18T09:13:59;-5.40;99.90
41668;DHT22;27356;50.920;5.350;2022-12-18T09:16:26;-5.30;99.90
41668;DHT22;27356;50.920;5.350;2022-12-18T09:18:56;-4.90;99.90
41668;DHT22;27356;50.920;5.350;2022-12-18T09:21:26;-4.60;99.90
41668;DHT22;27356;50.920;5.350;2022-12-18T09:23:53;-4.50;99.90
41668;DHT22;27356;50.920;5.350;2022-12-18T09:26:24;-4.60;99.90
41668;DHT22;27356;50.920;5.350;2022-12-18T09:28:50;-4.60;99.90
41668;DHT22;27356;50.920;5.350;2022-12-18T09:31:17;-4.40;99.90
41668;DHT22;27356;50.920;5.350;2022-12-18T09:33:43;-4.10;99.90
41668;DHT22;27356;50.920;5.350;2022-12-18T09:36:12;-4.20;99.90
41668;DHT22;27356;50.920;5.350;2022-12-18T09:38:38;-4.20;99.90
41668;DHT22;27356;50.920;5.350;2022-12-18T09:41:33;-4.30;99.90
41668;DHT22;27356;50.920;5.350;2022-12-18T09:44:05;-4.30;99.90
41668;DHT22;27356;50.920;5.350;2022-12-18T09:46:38;-4.20;99.90
41668;DHT22;27356;50.920;5.350;2022-12-18T09:49:11;-4.00;99.90
41668;DHT22;27356;50.920;5.350;2022-12-18T09:51:44;-3.90;99.90
41668;DHT22;27356;50.920;5.350;2022-12-18T09:54:16;-3.80;99.90
41668;DHT22;27356;50.920;5.350;2022-12-18T09:56:44;-3.70;99.90
41668;DHT22;27356;50.920;5.350;2022-12-18T09:59:38;-3.50;99.90
41668;DHT22;27356;50.920;5.350;2022-12-18T10:02:19;-3.50;99.90
41668;DHT22;27356;50.920;5.350;2022-12-18T10:05:00;-3.40;99.90
41668;DHT22;27356;50.920;5.350;2022-12-18T10:10:26;-3.40;99.90
41668;DHT22;27356;50.920;5.350;2022-12-18T10:13:27;-3.30;99.90
41668;DHT22;27356;50.920;5.350;2022-12-18T10:16:18;-3.20;99.90
41668;DHT22;27356;50.920;5.350;2022-12-18T10:21:37;-3.00;99.90
41668;DHT22;27356;50.920;5.350;2022-12-18T10:26:49;-2.70;99.90
41668;DHT22;27356;50.920;5.350;2022-12-18T10:29:16;-3.00;99.90
41668;DHT22;27356;50.920;5.350;2022-12-18T10:31:42;-2.80;99.90
41668;DHT22;27356;50.920;5.350;2022-12-18T10:34:11;-3.00;99.90
41668;DHT22;27356;50.920;5.350;2022-12-18T10:36:37;-3.10;99.90
41668;DHT22;27356;50.920;5.350;2022-12-18T10:39:21;-2.90;99.90
41668;DHT22;27356;50.920;5.350;2022-12-18T10:41:51;-2.70;99.90
41668;DHT22;27356;50.920;5.350;2022-12-18T10:44:19;-2.70;99.90
41668;DHT22;27356;50.920;5.350;2022-12-18T10:46:51;-2.30;99.90
41668;DHT22;27356;50.920;5.350;2022-12-18T10:49:26;-2.30;99.90
41668;DHT22;27356;50.920;5.350;2022-12-18T10:52:17;-2.40;99.90
41668;DHT22;27356;50.920;5.350;2022-12-18T10:54:59;-2.10;99.90
41668;DHT22;27356;50.920;5.350;2022-12-18T10:57:39;-2.10;99.90
41668;DHT22;27356;50.920;5.350;2022-12-18T11:00:27;-2.10;99.90
41668;DHT22;27356;50.920;5.350;2022-12-18T11:02:54;-1.90;99.90
41668;DHT22;27356;50.920;5.350;2022-12-18T11:05:27;-1.90;99.90
41668;DHT22;27356;50.920;5.350;2022-12-18T11:07:53;-2.10;99.90
41668;DHT22;27356;50.920;5.350;2022-12-18T11:10:26;-2.20;99.90
41668;DHT22;27356;50.920;5.350;2022-12-18T11:12:53;-1.90;99.90
41668;DHT22;27356;50.920;5.350;2022-12-18T11:15:28;-1.80;99.90
41668;DHT22;27356;50.920;5.350;2022-12-18T11:17:55;-1.70;99.90
41668;DHT22;27356;50.920;5.350;2022-12-18T11:20:34;-1.80;99.90
41668;DHT22;27356;50.920;5.350;2022-12-18T11:23:05;-1.60;99.90
41668;DHT22;27356;50.920;5.350;2022-12-18T11:25:36;-1.50;99.90
41668;DHT22;27356;50.920;5.350;2022-12-18T11:28:05;-1.50;99.90
41668;DHT22;27356;50.920;5.350;2022-12-18T11:30:36;-1.50;99.90
41668;DHT22;27356;50.920;5.350;2022-12-18T11:33:21;-1.50;99.90
41668;DHT22;27356;50.920;5.350;2022-12-18T11:38:23;-1.40;99.90
41668;DHT22;27356;50.920;5.350;2022-12-18T11:43:43;-1.60;99.90
41668;DHT22;27356;50.920;5.350;2022-12-18T11:46:16;-1.40;99.90
41668;DHT22;27356;50.920;5.350;2022-12-18T11:48:54;-1.20;99.90
41668;DHT22;27356;50.920;5.350;2022-12-18T11:51:36;-0.90;99.90
41668;DHT22;27356;50.920;5.350;2022-12-18T11:54:14;-0.80;99.90
41668;DHT22;27356;50.920;5.350;2022-12-18T11:56:58;-0.60;99.90
41668;DHT22;27356;50.920;5.350;2022-12-18T11:59:44;-0.60;99.90
41668;DHT22;27356;50.920;5.350;2022-12-18T12:10:43;-0.70;99.90
41668;DHT22;27356;50.920;5.350;2022-12-18T12:26:41;-0.70;99.90
41668;DHT22;27356;50.920;5.350;2022-12-18T12:32:33;-0.60;99.90
41668;DHT22;27356;50.920;5.350;2022-12-18T12:40:58;-0.40;99.90
41668;DHT22;27356;50.920;5.350;2022-12-18T12:43:46;-0.30;99.90
41668;DHT22;27356;50.920;5.350;2022-12-18T12:46:16;-0.10;99.90
41668;DHT22;27356;50.920;5.350;2022-12-18T12:48:58;0.10;99.90
41668;DHT22;27356;50.920;5.350;2022-12-18T12:51:36;0.30;99.90
41668;DHT22;27356;50.920;5.350;2022-12-18T12:54:14;0.00;99.90
41668;DHT22;27356;50.920;5.350;2022-12-18T12:57:02;0.10;99.90
41668;DHT22;27356;50.920;5.350;2022-12-18T13:07:45;0.50;99.90
41668;DHT22;27356;50.920;5.350;2022-12-18T13:12:58;0.90;99.90
41668;DHT22;27356;50.920;5.350;2022-12-18T13:20:41;0.40;99.90
41668;DHT22;27356;50.920;5.350;2022-12-18T13:25:49;0.40;99.90
41668;DHT22;27356;50.920;5.350;2022-12-18T13:28:21;0.70;99.90
41668;DHT22;27356;50.920;5.350;2022-12-18T13:30:56;0.90;99.90
41668;DHT22;27356;50.920;5.350;2022-12-18T13:36:26;0.80;99.90
41668;DHT22;27356;50.920;5.350;2022-12-18T13:41:41;0.10;99.90
41668;DHT22;27356;50.920;5.350;2022-12-18T13:44:13;0.30;99.90
41668;DHT22;27356;50.920;5.350;2022-12-18T13:46:48;0.40;99.90
41668;DHT22;27356;50.920;5.350;2022-12-18T13:55:07;0.40;99.90
41668;DHT22;27356;50.920;5.350;2022-12-18T13:57:35;0.50;99.90
41668;DHT22;27356;50.920;5.350;2022-12-18T14:00:30;0.50;99.90
41668;DHT22;27356;50.920;5.350;2022-12-18T14:02:57;0.60;99.90
41668;DHT22;27356;50.920;5.350;2022-12-18T14:05:29;0.50;99.90
41668;DHT22;27356;50.920;5.350;2022-12-18T14:08:08;0.60;99.90
41668;DHT22;27356;50.920;5.350;2022-12-18T14:10:35;0.50;99.90
41668;DHT22;27356;50.920;5.350;2022-12-18T14:13:08;0.40;99.90
41668;DHT22;27356;50.920;5.350;2022-12-18T14:15:46;0.40;99.90
41668;DHT22;27356;50.920;5.350;2022-12-18T14:21:21;0.60;99.90
41668;DHT22;27356;50.920;5.350;2022-12-18T14:23:47;0.60;99.90
41668;DHT22;27356;50.920;5.350;2022-12-18T14:26:23;0.60;99.90
41668;DHT22;27356;50.920;5.350;2022-12-18T14:28:50;0.80;99.90
41668;DHT22;27356;50.920;5.350;2022-12-18T14:31:30;0.90;99.90
41668;DHT22;27356;50.920;5.350;2022-12-18T14:33:56;1.10;99.90
41668;DHT22;27356;50.920;5.350;2022-12-18T14:36:27;1.10;99.90
41668;DHT22;27356;50.920;5.350;2022-12-18T14:38:55;1.00;99.90
41668;DHT22;27356;50.920;5.350;2022-12-18T14:41:21;1.10;99.90
41668;DHT22;27356;50.920;5.350;2022-12-18T14:43:49;0.90;99.90
41668;DHT22;27356;50.920;5.350;2022-12-18T14:48:59;0.90;99.90
41668;DHT22;27356;50.920;5.350;2022-12-18T14:51:27;1.10;99.90
41668;DHT22;27356;50.920;5.350;2022-12-18T14:54:04;1.00;99.90
41668;DHT22;27356;50.920;5.350;2022-12-18T14:56:43;1.00;99.90
41668;DHT22;27356;50.920;5.350;2022-12-18T14:59:22;0.90;99.90
41668;DHT22;27356;50.920;5.350;2022-12-18T15:04:44;1.00;99.90
41668;DHT22;27356;50.920;5.350;2022-12-18T15:07:18;1.00;99.90
41668;DHT22;27356;50.920;5.350;2022-12-18T15:10:11;1.30;99.90
41668;DHT22;27356;50.920;5.350;2022-12-18T15:12:43;1.30;99.90
41668;DHT22;27356;50.920;5.350;2022-12-18T15:26:04;0.80;99.90
41668;DHT22;27356;50.920;5.350;2022-12-18T15:28:35;0.90;99.90
41668;DHT22;27356;50.920;5.350;2022-12-18T15:33:43;0.90;99.90
41668;DHT22;27356;50.920;5.350;2022-12-18T15:36:16;0.90;99.90
41668;DHT22;27356;50.920;5.350;2022-12-18T15:38:46;0.90;99.90
41668;DHT22;27356;50.920;5.350;2022-12-18T15:41:14;0.70;99.90
41668;DHT22;27356;50.920;5.350;2022-12-18T15:43:40;0.50;99.90
41668;DHT22;27356;50.920;5.350;2022-12-18T15:46:16;0.20;99.90
41668;DHT22;27356;50.920;5.350;2022-12-18T15:51:16;0.00;99.90
41668;DHT22;27356;50.920;5.350;2022-12-18T15:53:42;0.00;99.90
41668;DHT22;27356;50.920;5.350;2022-12-18T15:56:12;0.10;99.90
41668;DHT22;27356;50.920;5.350;2022-12-18T15:58:56;0.10;99.90
41668;DHT22;27356;50.920;5.350;2022-12-18T16:01:27;0.20;99.90
41668;DHT22;27356;50.920;5.350;2022-12-18T16:03:53;0.50;99.90
41668;DHT22;27356;50.920;5.350;2022-12-18T16:06:20;0.40;99.90
41668;DHT22;27356;50.920;5.350;2022-12-18T16:08:45;0.60;99.90
41668;DHT22;27356;50.920;5.350;2022-12-18T16:14:24;1.00;99.90
41668;DHT22;27356;50.920;5.350;2022-12-18T16:16:54;1.10;99.90
41668;DHT22;27356;50.920;5.350;2022-12-18T16:19:21;1.10;99.90
41668;DHT22;27356;50.920;5.350;2022-12-18T16:21:51;1.00;99.90
41668;DHT22;27356;50.920;5.350;2022-12-18T16:24:21;1.00;99.90
41668;DHT22;27356;50.920;5.350;2022-12-18T16:26:48;0.70;99.90
41668;DHT22;27356;50.920;5.350;2022-12-18T16:29:14;0.50;99.90
41668;DHT22;27356;50.920;5.350;2022-12-18T16:31:40;0.30;99.90
41668;DHT22;27356;50.920;5.350;2022-12-18T16:34:25;0.20;99.90
41668;DHT22;27356;50.920;5.350;2022-12-18T16:36:54;0.30;99.90
41668;DHT22;27356;50.920;5.350;2022-12-18T16:39:20;0.30;99.90
41668;DHT22;27356;50.920;5.350;2022-12-18T16:41:46;0.60;99.90
41668;DHT22;27356;50.920;5.350;2022-12-18T16:44:12;0.60;99.90
41668;DHT22;27356;50.920;5.350;2022-12-18T16:46:42;0.80;99.90
41668;DHT22;27356;50.920;5.350;2022-12-18T16:49:12;0.90;99.90
41668;DHT22;27356;50.920;5.350;2022-12-18T16:51:38;0.90;99.90
41668;DHT22;27356;50.920;5.350;2022-12-18T16:54:03;0.80;99.90
41668;DHT22;27356;50.920;5.350;2022-12-18T16:56:34;0.70;99.90
41668;DHT22;27356;50.920;5.350;2022-12-18T16:59:01;0.90;99.90
41668;DHT22;27356;50.920;5.350;2022-12-18T17:01:29;1.00;99.90
41668;DHT22;27356;50.920;5.350;2022-12-18T17:03:58;1.00;99.90
41668;DHT22;27356;50.920;5.350;2022-12-18T17:06:25;1.10;99.90
41668;DHT22;27356;50.920;5.350;2022-12-18T17:08:59;1.20;99.90
41668;DHT22;27356;50.920;5.350;2022-12-18T17:11:26;1.20;99.90
41668;DHT22;27356;50.920;5.350;2022-12-18T17:13:52;1.10;99.90
41668;DHT22;27356;50.920;5.350;2022-12-18T17:16:18;1.20;99.90
41668;DHT22;27356;50.920;5.350;2022-12-18T17:18:44;0.90;99.90
41668;DHT22;27356;50.920;5.350;2022-12-18T17:21:10;0.90;99.90
41668;DHT22;27356;50.920;5.350;2022-12-18T17:23:41;0.90;99.90
41668;DHT22;27356;50.920;5.350;2022-12-18T17:26:09;1.20;99.90
41668;DHT22;27356;50.920;5.350;2022-12-18T17:28:35;1.40;99.90
41668;DHT22;27356;50.920;5.350;2022-12-18T17:31:01;1.50;99.90
41668;DHT22;27356;50.920;5.350;2022-12-18T17:33:34;1.60;99.90
41668;DHT22;27356;50.920;5.350;2022-12-18T17:36:00;1.30;99.90
41668;DHT22;27356;50.920;5.350;2022-12-18T17:38:25;1.30;99.90
41668;DHT22;27356;50.920;5.350;2022-12-18T17:40:52;1.60;99.90
41668;DHT22;27356;50.920;5.350;2022-12-18T17:43:17;1.60;99.90
41668;DHT22;27356;50.920;5.350;2022-12-18T17:45:43;1.70;99.90
41668;DHT22;27356;50.920;5.350;2022-12-18T17:48:09;1.80;99.90
41668;DHT22;27356;50.920;5.350;2022-12-18T17:50:35;1.70;99.90
41668;DHT22;27356;50.920;5.350;2022-12-18T17:53:01;1.80;99.90
41668;DHT22;27356;50.920;5.350;2022-12-18T17:55:27;1.80;99.90
41668;DHT22;27356;50.920;5.350;2022-12-18T17:57:54;1.90;99.90
41668;DHT22;27356;50.920;5.350;2022-12-18T18:00:20;1.80;99.90
41668;DHT22;27356;50.920;5.350;2022-12-18T18:02:49;1.70;99.90
41668;DHT22;27356;50.920;5.350;2022-12-18T18:05:15;1.70;99.90